createdAt,value
2023-01-09T00:01:31.450Z,20.52
2023-01-09T00:03:59.339Z,19.40
2023-01-09T00:06:27.194Z,18.73
2023-01-09T00:08:55.085Z,14.68
2023-01-09T00:11:22.952Z,16.05
2023-01-09T00:13:50.722Z,16.13
2023-01-09T00:16:18.876Z,18.92
2023-01-09T00:18:46.745Z,19.88
2023-01-09T00:21:32.999Z,19.45
2023-01-09T00:24:00.803Z,24.25
2023-01-09T00:26:28.539Z,24.30
2023-01-09T00:28:58.531Z,22.55
2023-01-09T00:31:27.550Z,28.42
2023-01-09T00:34:03.464Z,37.53
2023-01-09T00:36:31.392Z,51.50
2023-01-09T00:38:59.149Z,61.00
2023-01-09T00:41:32.307Z,64.50
2023-01-09T00:44:03.835Z,63.97
2023-01-09T00:46:33.803Z,54.20
2023-01-09T00:49:02.251Z,73.68
2023-01-09T00:51:30.216Z,77.80
2023-01-09T00:53:58.725Z,68.32
2023-01-09T00:56:26.565Z,65.07
2023-01-09T00:58:54.475Z,85.70
2023-01-09T01:01:22.376Z,84.68
2023-01-09T01:03:50.208Z,83.60
2023-01-09T01:06:36.205Z,81.72
2023-01-09T01:09:04.882Z,74.90
2023-01-09T01:11:33.448Z,70.60
2023-01-09T01:14:01.598Z,77.55
2023-01-09T01:16:29.479Z,78.18
2023-01-09T01:18:57.498Z,77.28
2023-01-09T01:21:25.380Z,80.78
2023-01-09T01:23:53.248Z,80.78
2023-01-09T01:26:21.096Z,80.68
2023-01-09T01:28:48.826Z,78.70
2023-01-09T01:31:18.171Z,79.63
2023-01-09T01:33:46.210Z,84.18
2023-01-09T01:36:16.619Z,84.95
2023-01-09T01:38:44.549Z,86.18
2023-01-09T01:41:12.549Z,84.93
2023-01-09T01:43:53.567Z,88.35
2023-01-09T01:46:21.624Z,83.57
2023-01-09T01:48:51.111Z,83.53
2023-01-09T01:51:37.169Z,83.32
2023-01-09T01:54:09.678Z,88.88
2023-01-09T01:56:41.340Z,86.43
2023-01-09T01:59:50.730Z,80.90
2023-01-09T02:02:20.731Z,65.50
2023-01-09T02:04:48.801Z,58.10
2023-01-09T02:07:16.569Z,62.30
2023-01-09T02:09:47.156Z,53.63
2023-01-09T02:12:26.348Z,54.78
2023-01-09T02:14:59.750Z,55.72
2023-01-09T02:17:38.157Z,54.63
2023-01-09T02:20:32.803Z,62.75
2023-01-09T02:23:40.979Z,89.65
2023-01-09T02:26:11.782Z,137.35
2023-01-09T02:29:16.532Z,126.47
2023-01-09T02:32:05.970Z,91.03
2023-01-09T02:34:45.784Z,101.40
2023-01-09T02:37:22.566Z,93.72
2023-01-09T02:40:28.787Z,84.80
2023-01-09T02:42:57.114Z,70.57
2023-01-09T02:45:25.152Z,62.17
2023-01-09T02:47:52.972Z,59.05
2023-01-09T02:50:44.414Z,58.78
2023-01-09T02:53:12.147Z,56.00
2023-01-09T02:55:56.113Z,51.35
2023-01-09T02:58:42.331Z,48.75
2023-01-09T03:01:12.982Z,49.13
2023-01-09T03:03:54.530Z,50.53
2023-01-09T03:06:35.124Z,51.33
2023-01-09T03:09:28.120Z,51.08
2023-01-09T03:12:18.626Z,40.80
2023-01-09T03:14:51.306Z,46.70
2023-01-09T03:17:46.470Z,40.25
2023-01-09T03:20:15.887Z,42.90
2023-01-09T03:23:09.988Z,45.90
2023-01-09T03:25:37.946Z,47.75
2023-01-09T03:28:07.928Z,46.10
2023-01-09T03:30:36.721Z,46.75
2023-01-09T03:33:04.772Z,40.17
2023-01-09T03:35:32.726Z,53.97
2023-01-09T03:38:00.639Z,53.55
2023-01-09T03:40:28.310Z,51.25
2023-01-09T03:42:56.084Z,52.58
2023-01-09T03:45:23.960Z,55.65
2023-01-09T03:47:53.023Z,62.72
2023-01-09T03:50:21.082Z,76.78
2023-01-09T03:52:48.831Z,100.30
2023-01-09T03:55:16.509Z,111.68
2023-01-09T03:57:44.306Z,93.68
2023-01-09T04:00:12.806Z,131.93
2023-01-09T04:02:59.487Z,131.00
2023-01-09T04:05:27.359Z,128.95
2023-01-09T04:08:13.932Z,122.22
2023-01-09T04:10:44.412Z,84.80
2023-01-09T04:13:12.822Z,103.65
2023-01-09T04:15:40.842Z,100.65
2023-01-09T04:18:09.219Z,87.07
2023-01-09T04:20:36.911Z,74.07
2023-01-09T04:23:04.779Z,85.72
2023-01-09T04:25:32.507Z,86.25
2023-01-09T04:28:00.328Z,81.10
2023-01-09T04:30:28.002Z,80.78
2023-01-09T04:32:56.137Z,77.13
2023-01-09T04:35:24.055Z,70.97
2023-01-09T04:38:10.450Z,60.47
2023-01-09T04:40:38.188Z,62.75
2023-01-09T04:43:05.912Z,66.00
2023-01-09T04:45:33.717Z,62.20
2023-01-09T04:48:01.359Z,69.55
2023-01-09T04:50:31.277Z,67.30
2023-01-09T04:52:59.232Z,67.85
2023-01-09T04:55:27.143Z,65.30
2023-01-09T04:57:54.999Z,73.07
2023-01-09T05:00:22.869Z,73.30
2023-01-09T05:02:50.494Z,78.38
2023-01-09T05:05:18.218Z,75.57
2023-01-09T05:07:45.897Z,74.15
2023-01-09T05:10:13.759Z,80.60
2023-01-09T05:12:41.578Z,78.70
2023-01-09T05:15:09.786Z,83.32
2023-01-09T05:17:37.579Z,85.32
2023-01-09T05:20:05.861Z,75.68
2023-01-09T05:22:33.845Z,86.65
2023-01-09T05:25:01.960Z,87.47
2023-01-09T05:27:31.424Z,82.90
2023-01-09T05:29:59.571Z,89.72
2023-01-09T05:32:27.348Z,72.82
2023-01-09T05:34:55.068Z,75.60
2023-01-09T05:37:22.724Z,87.50
2023-01-09T05:39:50.491Z,87.38
2023-01-09T05:42:18.243Z,87.00
2023-01-09T05:44:45.929Z,90.82
2023-01-09T05:47:13.789Z,88.72
2023-01-09T05:49:41.779Z,70.15
2023-01-09T05:52:09.682Z,76.65
2023-01-09T05:54:37.506Z,84.03
2023-01-09T05:57:05.352Z,71.82
2023-01-09T05:59:33.044Z,77.38
2023-01-09T06:02:00.946Z,81.80
2023-01-09T06:04:30.304Z,80.10
2023-01-09T06:06:58.043Z,81.53
2023-01-09T06:09:25.891Z,78.05
2023-01-09T06:11:55.287Z,80.25
2023-01-09T06:14:23.147Z,74.95
2023-01-09T06:16:50.704Z,70.63
2023-01-09T06:19:37.139Z,70.38
2023-01-09T06:22:04.885Z,58.92
2023-01-09T06:24:32.516Z,53.80
2023-01-09T06:27:00.438Z,53.60
2023-01-09T06:29:28.054Z,54.33
2023-01-09T06:31:55.784Z,54.70
2023-01-09T06:34:23.705Z,57.15
2023-01-09T06:36:51.384Z,50.78
2023-01-09T06:39:37.710Z,52.38
2023-01-09T06:42:05.590Z,53.10
2023-01-09T06:44:37.080Z,54.72
2023-01-09T06:47:05.171Z,53.85
2023-01-09T06:49:33.015Z,64.95
2023-01-09T06:52:05.914Z,60.17
2023-01-09T06:54:34.244Z,53.97
2023-01-09T06:57:02.001Z,54.67
2023-01-09T06:59:29.914Z,53.17
2023-01-09T07:01:57.758Z,52.45
2023-01-09T07:04:25.663Z,44.42
2023-01-09T07:06:53.434Z,41.17
2023-01-09T07:09:39.799Z,38.63
2023-01-09T07:12:07.728Z,36.05
2023-01-09T07:14:35.611Z,34.00
2023-01-09T07:17:04.111Z,36.90
2023-01-09T07:19:32.071Z,34.95
2023-01-09T07:22:00.292Z,33.47
2023-01-09T07:24:28.312Z,34.03
2023-01-09T07:26:56.159Z,26.63
2023-01-09T07:29:42.402Z,30.00
2023-01-09T07:32:10.396Z,22.65
2023-01-09T07:34:38.081Z,19.08
2023-01-09T07:37:05.866Z,19.55
2023-01-09T07:39:33.779Z,17.42
2023-01-09T07:42:01.418Z,17.77
2023-01-09T07:44:29.179Z,16.95
2023-01-09T07:46:57.743Z,18.17
2023-01-09T07:49:26.838Z,14.40
2023-01-09T07:51:55.512Z,13.20
2023-01-09T07:54:23.297Z,8.68
2023-01-09T07:56:51.027Z,2.70
2023-01-09T07:59:18.816Z,3.28
2023-01-09T08:01:46.659Z,4.45
2023-01-09T08:04:33.557Z,3.30
2023-01-09T08:07:03.670Z,3.70
2023-01-09T08:09:31.547Z,2.83
2023-01-09T08:11:59.343Z,3.08
2023-01-09T08:14:27.170Z,2.95
2023-01-09T08:16:54.778Z,3.00
2023-01-09T08:19:41.987Z,3.13
2023-01-09T08:22:10.097Z,2.30
2023-01-09T08:24:37.930Z,2.65
2023-01-09T08:27:05.792Z,2.20
2023-01-09T08:29:52.484Z,2.72
2023-01-09T08:32:20.212Z,2.50
2023-01-09T08:34:48.038Z,2.08
2023-01-09T08:37:15.919Z,2.45
2023-01-09T08:39:43.553Z,2.70
2023-01-09T08:42:29.550Z,2.88
2023-01-09T08:45:15.533Z,2.72
2023-01-09T08:47:43.348Z,2.28
2023-01-09T08:50:11.477Z,2.72
2023-01-09T08:52:39.272Z,2.85
2023-01-09T08:55:07.332Z,4.90
2023-01-09T08:57:35.184Z,3.00
2023-01-09T09:00:03.110Z,3.25
2023-01-09T09:02:31.020Z,2.58
2023-01-09T09:05:17.494Z,3.47
2023-01-09T09:07:47.716Z,2.72
2023-01-09T09:10:17.202Z,2.95
2023-01-09T09:12:45.234Z,3.13
2023-01-09T09:15:31.867Z,2.95
2023-01-09T09:18:04.426Z,2.90
2023-01-09T09:20:33.749Z,1.70
2023-01-09T09:23:01.445Z,2.88
2023-01-09T09:25:29.416Z,2.22
2023-01-09T09:27:57.455Z,3.05
2023-01-09T09:30:25.495Z,3.40
2023-01-09T09:32:53.185Z,2.40
2023-01-09T09:35:23.968Z,2.20
2023-01-09T09:37:59.159Z,2.85
2023-01-09T09:40:42.350Z,2.88
2023-01-09T09:46:46.962Z,1.88
2023-01-09T09:49:53.259Z,3.03
2023-01-09T09:52:36.607Z,3.72
2023-01-09T09:55:12.065Z,2.75
2023-01-09T09:57:39.990Z,2.05
2023-01-09T10:00:08.555Z,2.90
2023-01-09T10:02:50.894Z,2.83
2023-01-09T10:05:31.680Z,3.08
2023-01-09T10:08:15.413Z,3.20
2023-01-09T10:10:47.745Z,3.17
2023-01-09T10:13:37.316Z,2.92
2023-01-09T10:16:09.534Z,2.55
2023-01-09T10:18:55.847Z,3.15
2023-01-09T10:21:23.674Z,3.72
2023-01-09T10:24:04.912Z,3.42
2023-01-09T10:26:48.825Z,5.10
2023-01-09T10:29:45.061Z,7.07
2023-01-09T10:32:28.522Z,5.93
2023-01-09T10:35:20.820Z,6.63
2023-01-09T10:37:49.122Z,5.35
2023-01-09T10:40:21.031Z,4.57
2023-01-09T10:43:08.462Z,5.90
2023-01-09T10:45:55.425Z,5.05
2023-01-09T10:48:30.383Z,5.28
2023-01-09T10:50:58.280Z,6.25
2023-01-09T10:53:40.250Z,6.35
2023-01-09T10:56:22.109Z,5.32
2023-01-09T10:58:50.925Z,4.75
2023-01-09T11:01:35.268Z,3.95
2023-01-09T11:04:03.246Z,4.85
2023-01-09T11:06:37.445Z,6.93
2023-01-09T11:09:05.418Z,7.05
2023-01-09T11:11:35.846Z,11.15
2023-01-09T11:14:36.044Z,12.13
2023-01-09T11:17:04.564Z,6.35
2023-01-09T11:19:33.779Z,5.57
2023-01-09T11:22:16.742Z,5.22
2023-01-09T11:24:44.627Z,6.03
2023-01-09T11:27:25.445Z,5.35
2023-01-09T11:30:17.719Z,2.95
2023-01-09T11:32:45.667Z,2.83
2023-01-09T11:35:35.065Z,2.72
2023-01-09T11:38:14.949Z,2.90
2023-01-09T11:40:51.159Z,2.67
2023-01-09T11:43:33.270Z,3.20
2023-01-09T11:46:09.097Z,2.85
2023-01-09T11:48:57.288Z,3.10
2023-01-09T11:51:27.088Z,2.45
2023-01-09T11:54:17.143Z,3.08
2023-01-09T11:57:03.697Z,3.10
2023-01-09T11:59:31.672Z,4.22
2023-01-09T12:02:17.896Z,4.45
2023-01-09T12:04:53.995Z,3.42
2023-01-09T12:07:24.695Z,3.35
2023-01-09T12:10:41.436Z,3.40
2023-01-09T12:13:41.113Z,3.47
2023-01-09T12:16:20.998Z,2.90
2023-01-09T12:19:30.131Z,2.95
2023-01-09T12:22:16.209Z,4.20
2023-01-09T12:25:10.059Z,4.35
2023-01-09T12:27:44.314Z,3.65
2023-01-09T12:30:27.300Z,2.88
2023-01-09T12:33:13.378Z,3.85
2023-01-09T12:35:57.638Z,3.08
2023-01-09T12:38:43.954Z,2.38
2023-01-09T12:41:45.703Z,2.47
2023-01-09T12:44:34.907Z,3.15
2023-01-09T12:47:23.014Z,1.58
2023-01-09T12:50:10.543Z,3.13
2023-01-09T12:52:50.199Z,3.60
2023-01-09T12:55:27.871Z,2.20
2023-01-09T12:57:56.666Z,2.65
2023-01-09T13:00:27.537Z,3.50
2023-01-09T13:03:12.948Z,3.00
2023-01-09T13:05:47.532Z,2.42
2023-01-09T13:08:35.298Z,2.80
2023-01-09T13:11:23.773Z,3.28
2023-01-09T13:14:29.013Z,3.95
2023-01-09T13:16:57.276Z,3.35
2023-01-09T13:19:32.901Z,3.97
2023-01-09T13:22:00.737Z,3.70
2023-01-09T13:24:56.824Z,3.13
2023-01-09T13:27:25.518Z,3.40
2023-01-09T13:29:59.562Z,3.67
2023-01-09T13:32:49.146Z,3.13
2023-01-09T13:35:35.246Z,3.47
2023-01-09T13:38:03.236Z,3.92
2023-01-09T13:40:33.313Z,4.82
2023-01-09T13:43:06.529Z,4.22
2023-01-09T13:45:37.967Z,3.38
2023-01-09T13:48:12.390Z,4.20
2023-01-09T13:50:40.312Z,6.07
2023-01-09T13:53:45.484Z,6.20
2023-01-09T13:56:15.033Z,5.95
2023-01-09T13:58:55.039Z,4.80
2023-01-09T14:01:35.865Z,6.18
2023-01-09T14:04:22.272Z,4.85
2023-01-09T14:07:17.131Z,9.18
2023-01-09T14:09:55.062Z,4.72
2023-01-09T14:12:23.022Z,4.93
2023-01-09T14:14:52.013Z,5.47
2023-01-09T14:17:34.399Z,4.90
2023-01-09T14:20:07.355Z,14.52
2023-01-09T14:22:45.597Z,17.25
2023-01-09T14:25:26.123Z,14.52
2023-01-09T14:28:03.761Z,17.08
2023-01-09T14:30:35.580Z,6.80
2023-01-09T14:33:19.157Z,8.13
2023-01-09T14:35:51.660Z,5.35
2023-01-09T14:38:29.856Z,4.32
2023-01-09T14:41:01.726Z,3.40
2023-01-09T14:44:08.889Z,3.67
2023-01-09T14:46:38.677Z,3.65
2023-01-09T14:49:19.308Z,3.63
2023-01-09T14:51:47.028Z,3.47
2023-01-09T14:54:28.880Z,4.18
2023-01-09T14:56:56.876Z,4.00
2023-01-09T14:59:24.678Z,3.00
2023-01-09T15:01:55.667Z,3.42
2023-01-09T15:04:41.338Z,3.03
2023-01-09T15:07:20.395Z,3.30
2023-01-09T15:09:48.093Z,3.42
2023-01-09T15:12:22.952Z,6.38
2023-01-09T15:14:56.427Z,8.57
2023-01-09T15:17:43.791Z,5.68
2023-01-09T15:20:37.531Z,5.78
2023-01-09T15:23:05.818Z,4.45
2023-01-09T15:25:39.571Z,4.90
2023-01-09T15:28:32.571Z,4.82
2023-01-09T15:31:26.585Z,2.80
2023-01-09T15:33:54.425Z,2.95
2023-01-09T15:36:26.762Z,3.20
2023-01-09T15:38:54.565Z,3.60
2023-01-09T15:41:48.040Z,3.60
2023-01-09T15:44:36.798Z,3.22
2023-01-09T15:47:06.096Z,3.92
2023-01-09T15:49:34.352Z,4.22
2023-01-09T15:52:02.229Z,3.85
2023-01-09T15:54:31.188Z,4.70
2023-01-09T15:57:25.079Z,3.45
2023-01-09T15:59:56.807Z,3.47
2023-01-09T16:02:43.255Z,5.10
2023-01-09T16:05:18.066Z,6.68
2023-01-09T16:07:46.688Z,5.30
2023-01-09T16:10:25.635Z,4.53
2023-01-09T16:12:55.030Z,5.00
2023-01-09T16:15:22.611Z,5.15
2023-01-09T16:18:06.510Z,3.72
2023-01-09T16:20:34.301Z,4.50
2023-01-09T16:23:03.451Z,3.55
2023-01-09T16:25:34.803Z,3.40
2023-01-09T16:28:21.552Z,3.20
2023-01-09T16:31:24.247Z,2.95
2023-01-09T16:34:06.926Z,3.27
2023-01-09T16:36:35.413Z,2.70
2023-01-09T16:39:04.493Z,2.90
2023-01-09T16:41:50.449Z,2.40
2023-01-09T16:44:19.598Z,3.00
2023-01-09T16:46:47.349Z,2.63
2023-01-09T16:49:23.776Z,3.15
2023-01-09T16:51:51.804Z,2.83
2023-01-09T16:54:20.047Z,3.30
2023-01-09T16:56:49.598Z,4.47
2023-01-09T16:59:21.155Z,5.10
2023-01-09T17:01:48.995Z,5.47
2023-01-09T17:04:17.729Z,3.40
2023-01-09T17:06:45.577Z,4.13
2023-01-09T17:09:15.100Z,5.22
2023-01-09T17:11:42.922Z,5.82
2023-01-09T17:14:14.597Z,4.63
2023-01-09T17:16:51.416Z,4.82
2023-01-09T17:19:20.329Z,6.55
2023-01-09T17:21:48.289Z,7.45
2023-01-09T17:24:34.147Z,8.10
2023-01-09T17:27:20.445Z,8.77
2023-01-09T17:29:48.577Z,7.18
2023-01-09T17:32:17.212Z,5.90
2023-01-09T17:34:45.091Z,3.92
2023-01-09T17:37:16.666Z,4.03
2023-01-09T17:39:44.955Z,3.75
2023-01-09T17:42:12.740Z,3.78
2023-01-09T17:44:40.500Z,3.30
2023-01-09T17:47:13.534Z,3.85
2023-01-09T17:49:42.144Z,3.83
2023-01-09T17:52:09.896Z,3.67
2023-01-09T17:54:37.644Z,3.22
2023-01-09T17:57:05.479Z,3.33
2023-01-09T17:59:33.204Z,2.83
2023-01-09T18:02:00.986Z,3.08
2023-01-09T18:04:28.780Z,3.20
2023-01-09T18:06:56.624Z,3.40
2023-01-09T18:09:24.136Z,3.35
2023-01-09T18:11:51.907Z,3.65
2023-01-09T18:14:19.930Z,3.50
2023-01-09T18:16:47.851Z,3.05
2023-01-09T18:19:15.539Z,4.03
2023-01-09T18:21:43.325Z,4.60
2023-01-09T18:24:11.010Z,28.13
2023-01-09T18:26:38.829Z,5.18
2023-01-09T18:29:06.648Z,4.63
2023-01-09T18:31:34.254Z,3.85
2023-01-09T18:34:05.804Z,4.07
2023-01-09T18:36:34.249Z,3.92
2023-01-09T18:39:02.921Z,3.63
2023-01-09T18:41:30.920Z,2.20
2023-01-09T18:43:59.652Z,2.38
2023-01-09T18:46:31.196Z,2.35
2023-01-09T18:49:00.627Z,2.67
2023-01-09T18:51:28.556Z,2.47
2023-01-09T18:53:56.394Z,2.83
2023-01-09T18:56:25.175Z,3.33
2023-01-09T18:58:57.571Z,2.90
2023-01-09T19:01:26.222Z,2.53
2023-01-09T19:03:53.979Z,2.40
2023-01-09T19:06:21.662Z,2.72
2023-01-09T19:08:49.611Z,2.10
2023-01-09T19:11:17.402Z,3.10
2023-01-09T19:13:45.372Z,2.80
2023-01-09T19:16:13.117Z,3.35
2023-01-09T19:18:41.936Z,3.38
2023-01-09T19:21:22.861Z,2.63
2023-01-09T19:23:50.716Z,3.38
2023-01-09T19:26:24.045Z,1.92
2023-01-09T19:28:55.546Z,3.20
2023-01-09T19:31:24.824Z,2.85
2023-01-09T19:33:53.167Z,3.00
2023-01-09T19:36:21.874Z,3.03
2023-01-09T19:38:49.728Z,3.17
2023-01-09T19:41:19.718Z,3.05
2023-01-09T19:43:47.966Z,3.28
2023-01-09T19:46:20.683Z,3.70
2023-01-09T19:51:16.988Z,3.03
2023-01-09T19:53:44.821Z,2.92
2023-01-09T19:56:16.341Z,3.15
2023-01-09T19:58:48.199Z,3.38
2023-01-09T20:01:25.063Z,3.63
2023-01-09T20:03:53.588Z,3.92
2023-01-09T20:06:24.526Z,3.38
2023-01-09T20:08:54.604Z,4.00
2023-01-09T20:11:22.819Z,4.07
2023-01-09T20:13:50.681Z,4.32
2023-01-09T20:16:20.741Z,3.40
2023-01-09T20:18:48.602Z,4.18
2023-01-09T20:23:50.816Z,2.38
2023-01-09T20:26:18.834Z,3.40
2023-01-09T20:28:46.972Z,2.78
2023-01-09T20:31:16.707Z,2.78
2023-01-09T20:33:44.798Z,3.38
2023-01-09T20:36:12.526Z,1.95
2023-01-09T20:38:41.004Z,3.00
2023-01-09T20:41:26.278Z,2.97
2023-01-09T20:43:55.975Z,2.88
2023-01-09T20:46:25.383Z,2.40
2023-01-09T20:48:55.123Z,3.13
2023-01-09T20:51:22.969Z,4.00
2023-01-09T20:53:57.111Z,3.75
2023-01-09T20:56:28.713Z,3.60
2023-01-09T20:58:57.218Z,3.75
2023-01-09T21:01:25.006Z,2.85
2023-01-09T21:03:53.508Z,2.92
2023-01-09T21:06:22.256Z,2.60
2023-01-09T21:08:51.371Z,1.08
2023-01-09T21:11:19.833Z,2.97
2023-01-09T21:13:47.683Z,2.42
2023-01-09T21:16:17.793Z,2.92
2023-01-09T21:18:45.542Z,2.47
2023-01-09T21:21:18.809Z,2.63
2023-01-09T21:23:47.375Z,2.50
2023-01-09T21:26:15.410Z,2.50
2023-01-09T21:28:46.236Z,2.70
2023-01-09T21:31:14.332Z,3.22
2023-01-09T21:33:42.015Z,2.97
2023-01-09T21:36:10.156Z,2.30
2023-01-09T21:38:38.096Z,2.45
2023-01-09T21:41:24.681Z,2.00
2023-01-09T21:44:10.753Z,2.28
2023-01-09T21:46:53.454Z,2.75
2023-01-09T21:49:21.370Z,2.80
2023-01-09T21:51:49.118Z,2.50
2023-01-09T21:54:16.849Z,2.25
2023-01-09T21:56:44.582Z,2.55
2023-01-09T21:59:12.579Z,2.20
2023-01-09T22:01:40.334Z,2.10
2023-01-09T22:04:08.090Z,2.28
2023-01-09T22:06:36.273Z,2.38
2023-01-09T22:09:04.195Z,2.30
2023-01-09T22:11:31.975Z,2.35
2023-01-09T22:14:00.757Z,2.05
2023-01-09T22:16:28.600Z,2.22
2023-01-09T22:18:56.800Z,2.08
2023-01-09T22:21:24.932Z,1.55
2023-01-09T22:23:52.618Z,2.30
2023-01-09T22:26:20.797Z,1.40
2023-01-09T22:28:48.784Z,2.50
2023-01-09T22:31:18.533Z,2.03
2023-01-09T22:33:53.118Z,2.33
2023-01-09T22:36:20.920Z,1.67
2023-01-09T22:38:48.697Z,2.63
2023-01-09T22:41:16.376Z,3.72
2023-01-09T22:43:44.115Z,4.10
2023-01-09T22:46:11.983Z,3.38
2023-01-09T22:48:40.379Z,2.65
2023-01-09T22:51:12.113Z,3.25
2023-01-09T22:53:39.727Z,3.10
2023-01-09T22:56:08.841Z,3.65
2023-01-09T22:58:36.724Z,3.22
2023-01-09T23:01:04.636Z,4.03
2023-01-09T23:03:32.299Z,3.10
2023-01-09T23:06:10.979Z,3.20
2023-01-09T23:08:38.770Z,3.58
2023-01-09T23:11:08.423Z,3.90
2023-01-09T23:13:36.140Z,4.30
2023-01-09T23:16:04.380Z,4.50
2023-01-09T23:18:32.173Z,4.95
2023-01-09T23:21:02.235Z,4.65
2023-01-09T23:23:30.710Z,2.50
2023-01-09T23:26:00.253Z,5.43
2023-01-09T23:28:28.154Z,6.35
2023-01-09T23:30:55.823Z,5.78
2023-01-09T23:33:23.503Z,6.43
2023-01-09T23:35:51.250Z,6.50
2023-01-09T23:38:19.041Z,6.93
2023-01-09T23:40:46.769Z,6.50
2023-01-09T23:43:15.144Z,6.47
2023-01-09T23:45:44.020Z,6.47
2023-01-09T23:48:13.422Z,7.57
2023-01-09T23:50:53.937Z,4.30
2023-01-09T23:53:22.515Z,6.38
2023-01-09T23:55:52.508Z,6.78
2023-01-09T23:58:20.173Z,7.20
